sensor_id;sensor_type;location;lat;lon;timestamp;pressure;altitude;pressure_sealevel;temperature
73673;BMP280;61972;19.480;-99.240;2022-08-21T00:01:15;77800.66;;;28.14
73673;BMP280;61972;19.480;-99.240;2022-08-21T00:03:42;77803.28;;;28.14
73673;BMP280;61972;19.480;-99.240;2022-08-21T00:06:08;77803.28;;;28.14
73673;BMP280;61972;19.480;-99.240;2022-08-21T00:08:34;77804.25;;;28.12
73673;BMP280;61972;19.480;-99.240;2022-08-21T00:11:01;77808.94;;;28.12
73673;BMP280;61972;19.480;-99.240;2022-08-21T00:13:27;77804.25;;;28.12
73673;BMP280;61972;19.480;-99.240;2022-08-21T00:15:53;77810.06;;;28.13
73673;BMP280;61972;19.480;-99.240;2022-08-21T00:18:20;77810.06;;;28.13
73673;BMP280;61972;19.480;-99.240;2022-08-21T00:20:47;77816.84;;;28.12
73673;BMP280;61972;19.480;-99.240;2022-08-21T00:23:13;77832.03;;;28.11
73673;BMP280;61972;19.480;-99.240;2022-08-21T00:25:42;77821.53;;;28.11
73673;BMP280;61972;19.480;-99.240;2022-08-21T00:28:08;77814.22;;;28.12
73673;BMP280;61972;19.480;-99.240;2022-08-21T00:30:35;77815.72;;;28.11
73673;BMP280;61972;19.480;-99.240;2022-08-21T00:33:06;77815.59;;;28.08
73673;BMP280;61972;19.480;-99.240;2022-08-21T00:35:35;77826.50;;;28.06
73673;BMP280;61972;19.480;-99.240;2022-08-21T00:38:02;77825.78;;;28.03
73673;BMP280;61972;19.480;-99.240;2022-08-21T00:40:37;77830.88;;;28.00
73673;BMP280;61972;19.480;-99.240;2022-08-21T00:43:15;77843.44;;;28.00
73673;BMP280;61972;19.480;-99.240;2022-08-21T00:45:42;77847.59;;;27.99
73673;BMP280;61972;19.480;-99.240;2022-08-21T00:48:08;77844.97;;;27.99
73673;BMP280;61972;19.480;-99.240;2022-08-21T00:50:38;77860.88;;;28.01
73673;BMP280;61972;19.480;-99.240;2022-08-21T00:53:15;77861.44;;;28.02
73673;BMP280;61972;19.480;-99.240;2022-08-21T00:55:42;77864.47;;;28.00
73673;BMP280;61972;19.480;-99.240;2022-08-21T00:58:11;77862.81;;;27.98
73673;BMP280;61972;19.480;-99.240;2022-08-21T01:00:42;77864.72;;;27.95
73673;BMP280;61972;19.480;-99.240;2022-08-21T01:03:13;77867.75;;;27.93
73673;BMP280;61972;19.480;-99.240;2022-08-21T01:05:41;77874.09;;;27.94
73673;BMP280;61972;19.480;-99.240;2022-08-21T01:08:12;77864.56;;;27.93
73673;BMP280;61972;19.480;-99.240;2022-08-21T01:10:39;77872.47;;;27.93
73673;BMP280;61972;19.480;-99.240;2022-08-21T01:13:07;77871.34;;;27.92
73673;BMP280;61972;19.480;-99.240;2022-08-21T01:15:38;77879.63;;;27.89
73673;BMP280;61972;19.480;-99.240;2022-08-21T01:18:06;77888.47;;;27.88
73673;BMP280;61972;19.480;-99.240;2022-08-21T01:20:34;77899.38;;;27.86
73673;BMP280;61972;19.480;-99.240;2022-08-21T01:23:04;77905.41;;;27.82
73673;BMP280;61972;19.480;-99.240;2022-08-21T01:25:31;77904.13;;;27.78
73673;BMP280;61972;19.480;-99.240;2022-08-21T01:28:04;77920.84;;;27.77
73673;BMP280;61972;19.480;-99.240;2022-08-21T01:30:34;77923.88;;;27.75
73673;BMP280;61972;19.480;-99.240;2022-08-21T01:33:00;77922.78;;;27.74
73673;BMP280;61972;19.480;-99.240;2022-08-21T01:35:26;77923.16;;;27.72
73673;BMP280;61972;19.480;-99.240;2022-08-21T01:37:52;77912.09;;;27.71
73673;BMP280;61972;19.480;-99.240;2022-08-21T01:40:18;77915.69;;;27.69
73673;BMP280;61972;19.480;-99.240;2022-08-21T01:42:45;77919.81;;;27.68
73673;BMP280;61972;19.480;-99.240;2022-08-21T01:45:13;77930.31;;;27.68
73673;BMP280;61972;19.480;-99.240;2022-08-21T01:47:39;77929.22;;;27.67
73673;BMP280;61972;19.480;-99.240;2022-08-21T01:50:10;77932.81;;;27.66
73673;BMP280;61972;19.480;-99.240;2022-08-21T01:52:36;77941.63;;;27.64
73673;BMP280;61972;19.480;-99.240;2022-08-21T01:55:04;77945.78;;;27.63
73673;BMP280;61972;19.480;-99.240;2022-08-21T01:57:31;77960.41;;;27.62
73673;BMP280;61972;19.480;-99.240;2022-08-21T02:00:42;77967.56;;;27.59
73673;BMP280;61972;19.480;-99.240;2022-08-21T02:03:17;77968.13;;;27.60
73673;BMP280;61972;19.480;-99.240;2022-08-21T02:05:43;77972.81;;;27.59
73673;BMP280;61972;19.480;-99.240;2022-08-21T02:08:12;77976.97;;;27.58
73673;BMP280;61972;19.480;-99.240;2022-08-21T02:10:38;77981.09;;;27.57
73673;BMP280;61972;19.480;-99.240;2022-08-21T02:13:04;77985.22;;;27.56
73673;BMP280;61972;19.480;-99.240;2022-08-21T02:15:31;77991.97;;;27.55
73673;BMP280;61972;19.480;-99.240;2022-08-21T02:17:59;77996.84;;;27.57
73673;BMP280;61972;19.480;-99.240;2022-08-21T02:20:36;77997.38;;;27.58
73673;BMP280;61972;19.480;-99.240;2022-08-21T02:23:07;78013.72;;;27.58
73673;BMP280;61972;19.480;-99.240;2022-08-21T02:25:34;78016.50;;;27.61
73673;BMP280;61972;19.480;-99.240;2022-08-21T02:28:13;78021.19;;;27.60
73673;BMP280;61972;19.480;-99.240;2022-08-21T02:30:44;78023.41;;;27.62
73673;BMP280;61972;19.480;-99.240;2022-08-21T02:33:14;78040.69;;;27.61
73673;BMP280;61972;19.480;-99.240;2022-08-21T02:35:42;78038.44;;;27.59
73673;BMP280;61972;19.480;-99.240;2022-08-21T02:38:11;78046.88;;;27.60
73673;BMP280;61972;19.480;-99.240;2022-08-21T02:40:41;78047.03;;;27.62
73673;BMP280;61972;19.480;-99.240;2022-08-21T02:43:07;78052.69;;;27.60
73673;BMP280;61972;19.480;-99.240;2022-08-21T02:45:35;78056.81;;;27.59
73673;BMP280;61972;19.480;-99.240;2022-08-21T02:48:36;78057.22;;;27.57
73673;BMP280;61972;19.480;-99.240;2022-08-21T02:51:15;78066.22;;;27.58
73673;BMP280;61972;19.480;-99.240;2022-08-21T02:53:47;78070.34;;;27.57
73673;BMP280;61972;19.480;-99.240;2022-08-21T02:56:15;78071.84;;;27.56
73673;BMP280;61972;19.480;-99.240;2022-08-21T02:58:46;78076.16;;;27.58
73673;BMP280;61972;19.480;-99.240;2022-08-21T03:01:16;78083.06;;;27.59
73673;BMP280;61972;19.480;-99.240;2022-08-21T03:03:44;78079.88;;;27.59
73673;BMP280;61972;19.480;-99.240;2022-08-21T03:06:13;78080.28;;;27.57
73673;BMP280;61972;19.480;-99.240;2022-08-21T03:08:40;78079.72;;;27.56
73673;BMP280;61972;19.480;-99.240;2022-08-21T03:11:06;78080.28;;;27.57
73673;BMP280;61972;19.480;-99.240;2022-08-21T03:13:33;78086.09;;;27.57
73673;BMP280;61972;19.480;-99.240;2022-08-21T03:15:59;78089.66;;;27.56
73673;BMP280;61972;19.480;-99.240;2022-08-21T03:18:25;78094.34;;;27.55
73673;BMP280;61972;19.480;-99.240;2022-08-21T03:20:51;78086.88;;;27.53
73673;BMP280;61972;19.480;-99.240;2022-08-21T03:23:18;78090.63;;;27.54
73673;BMP280;61972;19.480;-99.240;2022-08-21T03:25:53;78088.00;;;27.54
73673;BMP280;61972;19.480;-99.240;2022-08-21T03:28:20;78089.09;;;27.55
73673;BMP280;61972;19.480;-99.240;2022-08-21T03:30:49;78093.25;;;27.54
73673;BMP280;61972;19.480;-99.240;2022-08-21T03:33:16;78093.25;;;27.54
73673;BMP280;61972;19.480;-99.240;2022-08-21T03:39:16;78089.34;;;27.50
73673;BMP280;61972;19.480;-99.240;2022-08-21T03:41:43;78105.09;;;27.50
73673;BMP280;61972;19.480;-99.240;2022-08-21T03:44:09;78109.22;;;27.49
73673;BMP280;61972;19.480;-99.240;2022-08-21T03:46:38;78107.56;;;27.48
73673;BMP280;61972;19.480;-99.240;2022-08-21T03:49:06;78107.56;;;27.48
73673;BMP280;61972;19.480;-99.240;2022-08-21T03:51:32;78108.09;;;27.48
73673;BMP280;61972;19.480;-99.240;2022-08-21T03:54:01;78110.56;;;27.46
73673;BMP280;61972;19.480;-99.240;2022-08-21T03:56:27;78114.69;;;27.45
73673;BMP280;61972;19.480;-99.240;2022-08-21T03:58:53;78118.81;;;27.44
73673;BMP280;61972;19.480;-99.240;2022-08-21T04:01:19;78118.09;;;27.41
73673;BMP280;61972;19.480;-99.240;2022-08-21T04:03:46;78112.28;;;27.40
73673;BMP280;61972;19.480;-99.240;2022-08-21T04:06:12;78122.22;;;27.40
73673;BMP280;61972;19.480;-99.240;2022-08-21T04:08:38;78118.47;;;27.39
73673;BMP280;61972;19.480;-99.240;2022-08-21T04:11:05;78109.50;;;27.38
73673;BMP280;61972;19.480;-99.240;2022-08-21T04:13:31;78101.06;;;27.37
73673;BMP280;61972;19.480;-99.240;2022-08-21T04:15:57;78109.91;;;27.36
73673;BMP280;61972;19.480;-99.240;2022-08-21T04:18:26;78114.03;;;27.35
73673;BMP280;61972;19.480;-99.240;2022-08-21T04:20:54;78108.22;;;27.34
73673;BMP280;61972;19.480;-99.240;2022-08-21T04:23:22;78104.47;;;27.33
73673;BMP280;61972;19.480;-99.240;2022-08-21T04:25:55;78112.31;;;27.33
73673;BMP280;61972;19.480;-99.240;2022-08-21T04:28:23;78110.69;;;27.31
73673;BMP280;61972;19.480;-99.240;2022-08-21T04:30:51;78106.38;;;27.30
73673;BMP280;61972;19.480;-99.240;2022-08-21T04:33:17;78103.75;;;27.30
73673;BMP280;61972;19.480;-99.240;2022-08-21T04:35:43;78108.41;;;27.29
73673;BMP280;61972;19.480;-99.240;2022-08-21T04:38:10;78102.06;;;27.28
73673;BMP280;61972;19.480;-99.240;2022-08-21T04:40:37;78100.94;;;27.27
73673;BMP280;61972;19.480;-99.240;2022-08-21T04:43:05;78105.06;;;27.26
73673;BMP280;61972;19.480;-99.240;2022-08-21T04:45:35;78103.41;;;27.25
73673;BMP280;61972;19.480;-99.240;2022-08-21T04:48:03;78104.53;;;27.26
73673;BMP280;61972;19.480;-99.240;2022-08-21T04:53:21;78104.34;;;27.23
73673;BMP280;61972;19.480;-99.240;2022-08-21T04:55:51;78103.25;;;27.22
73673;BMP280;61972;19.480;-99.240;2022-08-21T04:58:21;78099.50;;;27.21
73673;BMP280;61972;19.480;-99.240;2022-08-21T05:00:49;78098.94;;;27.21
73673;BMP280;61972;19.480;-99.240;2022-08-21T05:03:17;78103.63;;;27.20
73673;BMP280;61972;19.480;-99.240;2022-08-21T05:05:46;78108.31;;;27.20
73673;BMP280;61972;19.480;-99.240;2022-08-21T05:08:19;78097.09;;;27.17
73673;BMP280;61972;19.480;-99.240;2022-08-21T05:10:45;78104.97;;;27.17
73673;BMP280;61972;19.480;-99.240;2022-08-21T05:13:13;78099.16;;;27.16
73673;BMP280;61972;19.480;-99.240;2022-08-21T05:15:40;78099.16;;;27.16
73673;BMP280;61972;19.480;-99.240;2022-08-21T05:18:06;78100.66;;;27.15
73673;BMP280;61972;19.480;-99.240;2022-08-21T05:20:33;78099.00;;;27.13
73673;BMP280;61972;19.480;-99.240;2022-08-21T05:23:01;78087.91;;;27.13
73673;BMP280;61972;19.480;-99.240;2022-08-21T05:25:33;78092.06;;;27.12
73673;BMP280;61972;19.480;-99.240;2022-08-21T05:27:59;78081.97;;;27.10
73673;BMP280;61972;19.480;-99.240;2022-08-21T05:30:25;78080.44;;;27.11
73673;BMP280;61972;19.480;-99.240;2022-08-21T05:33:00;78085.53;;;27.08
73673;BMP280;61972;19.480;-99.240;2022-08-21T05:35:27;78081.22;;;27.07
73673;BMP280;61972;19.480;-99.240;2022-08-21T05:37:54;78077.50;;;27.06
73673;BMP280;61972;19.480;-99.240;2022-08-21T05:40:21;78076.94;;;27.05
73673;BMP280;61972;19.480;-99.240;2022-08-21T05:42:47;78076.94;;;27.05
73673;BMP280;61972;19.480;-99.240;2022-08-21T05:45:13;78075.25;;;27.04
73673;BMP280;61972;19.480;-99.240;2022-08-21T05:47:39;78074.16;;;27.03
73673;BMP280;61972;19.480;-99.240;2022-08-21T05:50:05;78074.69;;;27.03
73673;BMP280;61972;19.480;-99.240;2022-08-21T05:52:32;78073.03;;;27.02
73673;BMP280;61972;19.480;-99.240;2022-08-21T05:54:58;78062.53;;;27.02
73673;BMP280;61972;19.480;-99.240;2022-08-21T05:57:24;78068.34;;;27.02
73673;BMP280;61972;19.480;-99.240;2022-08-21T05:59:51;78065.16;;;27.02
73673;BMP280;61972;19.480;-99.240;2022-08-21T06:02:19;78065.16;;;27.02
73673;BMP280;61972;19.480;-99.240;2022-08-21T06:04:46;78062.94;;;27.00
73673;BMP280;61972;19.480;-99.240;2022-08-21T06:07:13;78056.56;;;26.99
73673;BMP280;61972;19.480;-99.240;2022-08-21T06:09:39;78057.50;;;26.97
73673;BMP280;61972;19.480;-99.240;2022-08-21T06:12:07;78046.47;;;26.97
73673;BMP280;61972;19.480;-99.240;2022-08-21T06:14:34;78042.34;;;26.98
73673;BMP280;61972;19.480;-99.240;2022-08-21T06:17:03;78046.47;;;26.97
73673;BMP280;61972;19.480;-99.240;2022-08-21T06:19:29;78041.22;;;26.97
73673;BMP280;61972;19.480;-99.240;2022-08-21T06:21:55;78029.06;;;26.95
73673;BMP280;61972;19.480;-99.240;2022-08-21T06:24:21;78032.25;;;26.95
73673;BMP280;61972;19.480;-99.240;2022-08-21T06:26:48;78029.63;;;26.95
73673;BMP280;61972;19.480;-99.240;2022-08-21T06:29:14;78023.25;;;26.94
73673;BMP280;61972;19.480;-99.240;2022-08-21T06:31:42;78020.44;;;26.92
73673;BMP280;61972;19.480;-99.240;2022-08-21T06:34:18;78014.66;;;26.91
73673;BMP280;61972;19.480;-99.240;2022-08-21T06:36:44;78020.84;;;26.90
73673;BMP280;61972;19.480;-99.240;2022-08-21T06:39:10;78018.03;;;26.87
73673;BMP280;61972;19.480;-99.240;2022-08-21T06:41:42;78024.41;;;26.88
73673;BMP280;61972;19.480;-99.240;2022-08-21T06:44:11;78031.16;;;26.87
73673;BMP280;61972;19.480;-99.240;2022-08-21T06:46:37;78027.97;;;26.87
73673;BMP280;61972;19.480;-99.240;2022-08-21T06:49:06;78025.75;;;26.85
73673;BMP280;61972;19.480;-99.240;2022-08-21T06:51:32;78019.97;;;26.84
73673;BMP280;61972;19.480;-99.240;2022-08-21T06:53:58;78012.66;;;26.85
73673;BMP280;61972;19.480;-99.240;2022-08-21T06:56:33;78005.34;;;26.85
73673;BMP280;61972;19.480;-99.240;2022-08-21T06:59:02;78006.84;;;26.84
73673;BMP280;61972;19.480;-99.240;2022-08-21T07:01:32;78001.59;;;26.84
73673;BMP280;61972;19.480;-99.240;2022-08-21T07:03:58;77999.00;;;26.84
73673;BMP280;61972;19.480;-99.240;2022-08-21T07:06:24;77994.69;;;26.83
73673;BMP280;61972;19.480;-99.240;2022-08-21T07:08:51;77995.25;;;26.83
73673;BMP280;61972;19.480;-99.240;2022-08-21T07:11:20;77996.19;;;26.82
73673;BMP280;61972;19.480;-99.240;2022-08-21T07:13:46;77993.00;;;26.81
73673;BMP280;61972;19.480;-99.240;2022-08-21T07:16:14;77990.78;;;26.79
73673;BMP280;61972;19.480;-99.240;2022-08-21T07:18:40;77987.59;;;26.79
73673;BMP280;61972;19.480;-99.240;2022-08-21T07:21:07;77980.28;;;26.79
73673;BMP280;61972;19.480;-99.240;2022-08-21T07:23:37;77982.75;;;26.76
73673;BMP280;61972;19.480;-99.240;2022-08-21T07:26:04;77976.00;;;26.77
73673;BMP280;61972;19.480;-99.240;2022-08-21T07:28:31;77974.31;;;26.76
73673;BMP280;61972;19.480;-99.240;2022-08-21T07:30:59;77967.41;;;26.74
73673;BMP280;61972;19.480;-99.240;2022-08-21T07:33:28;77965.34;;;26.75
73673;BMP280;61972;19.480;-99.240;2022-08-21T07:35:54;77964.22;;;26.74
73673;BMP280;61972;19.480;-99.240;2022-08-21T07:38:21;77966.84;;;26.74
73673;BMP280;61972;19.480;-99.240;2022-08-21T07:40:51;77968.91;;;26.73
73673;BMP280;61972;19.480;-99.240;2022-08-21T07:43:18;77965.19;;;26.72
73673;BMP280;61972;19.480;-99.240;2022-08-21T07:45:45;77967.22;;;26.72
73673;BMP280;61972;19.480;-99.240;2022-08-21T07:48:22;77965.56;;;26.70
73673;BMP280;61972;19.480;-99.240;2022-08-21T07:50:58;77963.91;;;26.69
73673;BMP280;61972;19.480;-99.240;2022-08-21T07:53:24;77961.84;;;26.69
73673;BMP280;61972;19.480;-99.240;2022-08-21T07:55:50;77958.09;;;26.68
73673;BMP280;61972;19.480;-99.240;2022-08-21T07:58:16;77954.91;;;26.68
73673;BMP280;61972;19.480;-99.240;2022-08-21T08:00:42;77951.72;;;26.67
73673;BMP280;61972;19.480;-99.240;2022-08-21T08:03:09;77957.88;;;26.73
73673;BMP280;61972;19.480;-99.240;2022-08-21T08:05:35;77953.09;;;26.81
73673;BMP280;61972;19.480;-99.240;2022-08-21T08:08:03;77943.69;;;26.89
73673;BMP280;61972;19.480;-99.240;2022-08-21T08:10:33;77945.13;;;26.95
73673;BMP280;61972;19.480;-99.240;2022-08-21T08:12:59;77943.00;;;27.03
73673;BMP280;61972;19.480;-99.240;2022-08-21T08:15:27;77945.88;;;27.15
73673;BMP280;61972;19.480;-99.240;2022-08-21T08:17:54;77942.66;;;27.22
73673;BMP280;61972;19.480;-99.240;2022-08-21T08:20:21;77932.31;;;27.24
73673;BMP280;61972;19.480;-99.240;2022-08-21T08:22:49;77934.16;;;27.28
73673;BMP280;61972;19.480;-99.240;2022-08-21T08:25:16;77929.78;;;27.34
73673;BMP280;61972;19.480;-99.240;2022-08-21T08:27:42;77920.47;;;27.45
73673;BMP280;61972;19.480;-99.240;2022-08-21T08:30:11;77927.94;;;27.47
73673;BMP280;61972;19.480;-99.240;2022-08-21T08:32:37;77929.63;;;27.48
73673;BMP280;61972;19.480;-99.240;2022-08-21T08:35:06;77923.44;;;27.50
73673;BMP280;61972;19.480;-99.240;2022-08-21T08:39:58;77921.09;;;27.55
73673;BMP280;61972;19.480;-99.240;2022-08-21T08:42:29;77912.84;;;27.57
73673;BMP280;61972;19.480;-99.240;2022-08-21T08:45:18;77916.59;;;27.58
73673;BMP280;61972;19.480;-99.240;2022-08-21T08:48:09;77909.81;;;27.59
73673;BMP280;61972;19.480;-99.240;2022-08-21T08:50:56;77909.81;;;27.59
73673;BMP280;61972;19.480;-99.240;2022-08-21T08:53:32;77906.09;;;27.58
73673;BMP280;61972;19.480;-99.240;2022-08-21T08:56:00;77918.09;;;27.57
73673;BMP280;61972;19.480;-99.240;2022-08-21T08:58:40;77916.41;;;27.56
73673;BMP280;61972;19.480;-99.240;2022-08-21T09:01:16;77920.00;;;27.54
73673;BMP280;61972;19.480;-99.240;2022-08-21T09:03:44;77918.31;;;27.52
73673;BMP280;61972;19.480;-99.240;2022-08-21T09:09:25;77924.53;;;27.51
73673;BMP280;61972;19.480;-99.240;2022-08-21T09:25:36;77931.94;;;27.43
73673;BMP280;61972;19.480;-99.240;2022-08-21T09:28:08;77928.72;;;27.43
73673;BMP280;61972;19.480;-99.240;2022-08-21T09:30:34;77931.22;;;27.40
73673;BMP280;61972;19.480;-99.240;2022-08-21T09:33:00;77926.91;;;27.39
73673;BMP280;61972;19.480;-99.240;2022-08-21T09:35:26;77934.78;;;27.39
73673;BMP280;61972;19.480;-99.240;2022-08-21T09:37:54;77934.22;;;27.38
73673;BMP280;61972;19.480;-99.240;2022-08-21T09:40:27;77944.16;;;27.38
73673;BMP280;61972;19.480;-99.240;2022-08-21T09:43:01;77941.97;;;27.36
73673;BMP280;61972;19.480;-99.240;2022-08-21T09:45:28;77947.22;;;27.36
73673;BMP280;61972;19.480;-99.240;2022-08-21T09:47:54;77951.88;;;27.35
73673;BMP280;61972;19.480;-99.240;2022-08-21T09:50:24;77951.34;;;27.35
73673;BMP280;61972;19.480;-99.240;2022-08-21T09:52:58;77960.31;;;27.36
73673;BMP280;61972;19.480;-99.240;2022-08-21T09:58:34;77963.25;;;27.41
73673;BMP280;61972;19.480;-99.240;2022-08-21T10:01:03;77960.81;;;27.43
73673;BMP280;61972;19.480;-99.240;2022-08-21T10:03:30;77963.56;;;27.46
73673;BMP280;61972;19.480;-99.240;2022-08-21T10:06:07;77968.03;;;27.50
73673;BMP280;61972;19.480;-99.240;2022-08-21T10:08:36;77966.69;;;27.54
73673;BMP280;61972;19.480;-99.240;2022-08-21T10:11:14;77968.34;;;27.55
73673;BMP280;61972;19.480;-99.240;2022-08-21T10:24:42;77975.28;;;27.57
73673;BMP280;61972;19.480;-99.240;2022-08-21T10:32:47;77981.41;;;27.62
73673;BMP280;61972;19.480;-99.240;2022-08-21T10:35:34;77981.25;;;27.60
73673;BMP280;61972;19.480;-99.240;2022-08-21T10:38:40;77983.78;;;27.50
73673;BMP280;61972;19.480;-99.240;2022-08-21T10:47:00;77989.09;;;27.26
73673;BMP280;61972;19.480;-99.240;2022-08-21T10:49:51;77992.50;;;27.22
73673;BMP280;61972;19.480;-99.240;2022-08-21T10:52:50;77990.09;;;27.17
73673;BMP280;61972;19.480;-99.240;2022-08-21T10:58:12;77984.72;;;27.07
73673;BMP280;61972;19.480;-99.240;2022-08-21T11:00:47;77993.94;;;27.04
73673;BMP280;61972;19.480;-99.240;2022-08-21T11:03:15;77992.66;;;27.00
73673;BMP280;61972;19.480;-99.240;2022-08-21T11:06:33;77985.59;;;26.96
73673;BMP280;61972;19.480;-99.240;2022-08-21T11:08:46;77989.50;;;27.00
73673;BMP280;61972;19.480;-99.240;2022-08-21T11:11:24;78000.47;;;27.07
73673;BMP280;61972;19.480;-99.240;2022-08-21T11:14:03;78001.34;;;27.13
73673;BMP280;61972;19.480;-99.240;2022-08-21T11:20:13;78001.31;;;27.20
73673;BMP280;61972;19.480;-99.240;2022-08-21T11:22:56;78008.22;;;27.22
73673;BMP280;61972;19.480;-99.240;2022-08-21T11:25:35;78010.31;;;27.21
73673;BMP280;61972;19.480;-99.240;2022-08-21T11:28:21;78017.19;;;27.23
73673;BMP280;61972;19.480;-99.240;2022-08-21T11:33:56;78022.44;;;27.23
73673;BMP280;61972;19.480;-99.240;2022-08-21T11:36:30;78027.16;;;27.22
73673;BMP280;61972;19.480;-99.240;2022-08-21T11:44:41;78026.03;;;27.21
73673;BMP280;61972;19.480;-99.240;2022-08-21T11:47:40;78024.91;;;27.20
73673;BMP280;61972;19.480;-99.240;2022-08-21T11:50:18;78017.59;;;27.21
73673;BMP280;61972;19.480;-99.240;2022-08-21T11:52:45;78024.34;;;27.20
73673;BMP280;61972;19.480;-99.240;2022-08-21T11:55:19;78024.91;;;27.20
73673;BMP280;61972;19.480;-99.240;2022-08-21T11:58:11;78020.63;;;27.19
73673;BMP280;61972;19.480;-99.240;2022-08-21T12:00:51;78018.00;;;27.19
73673;BMP280;61972;19.480;-99.240;2022-08-21T12:03:31;78021.19;;;27.19
73673;BMP280;61972;19.480;-99.240;2022-08-21T12:06:13;78017.44;;;27.18
73673;BMP280;61972;19.480;-99.240;2022-08-21T12:08:42;78021.19;;;27.19
73673;BMP280;61972;19.480;-99.240;2022-08-21T12:16:38;78017.81;;;27.16
73673;BMP280;61972;19.480;-99.240;2022-08-21T12:19:14;78015.19;;;27.16
73673;BMP280;61972;19.480;-99.240;2022-08-21T12:24:49;78009.41;;;27.16
73673;BMP280;61972;19.480;-99.240;2022-08-21T12:27:30;78012.97;;;27.14
73673;BMP280;61972;19.480;-99.240;2022-08-21T12:30:41;78018.22;;;27.14
73673;BMP280;61972;19.480;-99.240;2022-08-21T12:33:29;78011.31;;;27.12
73673;BMP280;61972;19.480;-99.240;2022-08-21T12:36:09;78009.22;;;27.13
73673;BMP280;61972;19.480;-99.240;2022-08-21T12:39:01;78006.59;;;27.13
73673;BMP280;61972;19.480;-99.240;2022-08-21T12:41:42;78006.59;;;27.13
73673;BMP280;61972;19.480;-99.240;2022-08-21T12:44:21;78010.75;;;27.12
73673;BMP280;61972;19.480;-99.240;2022-08-21T12:47:02;78006.06;;;27.12
73673;BMP280;61972;19.480;-99.240;2022-08-21T12:49:39;78010.75;;;27.12
73673;BMP280;61972;19.480;-99.240;2022-08-21T12:52:19;78020.13;;;27.11
73673;BMP280;61972;19.480;-99.240;2022-08-21T12:54:46;78019.81;;;27.06
73673;BMP280;61972;19.480;-99.240;2022-08-21T12:57:25;78032.56;;;27.01
73673;BMP280;61972;19.480;-99.240;2022-08-21T12:59:56;78023.97;;;26.98
73673;BMP280;61972;19.480;-99.240;2022-08-21T13:02:28;78027.38;;;26.93
73673;BMP280;61972;19.480;-99.240;2022-08-21T13:04:56;78024.03;;;26.90
73673;BMP280;61972;19.480;-99.240;2022-08-21T13:07:28;78021.78;;;26.88
73673;BMP280;61972;19.480;-99.240;2022-08-21T13:10:02;78019.56;;;26.86
73673;BMP280;61972;19.480;-99.240;2022-08-21T13:12:30;78030.84;;;26.82
73673;BMP280;61972;19.480;-99.240;2022-08-21T13:15:02;78036.47;;;26.80
73673;BMP280;61972;19.480;-99.240;2022-08-21T13:17:32;78036.69;;;26.75
73673;BMP280;61972;19.480;-99.240;2022-08-21T13:22:31;78039.53;;;26.71
73673;BMP280;61972;19.480;-99.240;2022-08-21T13:25:01;78045.16;;;26.69
73673;BMP280;61972;19.480;-99.240;2022-08-21T13:27:29;78051.31;;;26.67
73673;BMP280;61972;19.480;-99.240;2022-08-21T13:32:32;78057.38;;;26.63
73673;BMP280;61972;19.480;-99.240;2022-08-21T13:35:17;78066.16;;;26.62
73673;BMP280;61972;19.480;-99.240;2022-08-21T13:37:45;78063.38;;;26.59
73673;BMP280;61972;19.480;-99.240;2022-08-21T13:40:24;78065.25;;;26.56
73673;BMP280;61972;19.480;-99.240;2022-08-21T13:42:51;78074.06;;;26.54
73673;BMP280;61972;19.480;-99.240;2022-08-21T13:45:26;78069.78;;;26.53
73673;BMP280;61972;19.480;-99.240;2022-08-21T13:47:53;78074.81;;;26.50
73673;BMP280;61972;19.480;-99.240;2022-08-21T13:50:22;78077.84;;;26.48
73673;BMP280;61972;19.480;-99.240;2022-08-21T13:53:05;78082.34;;;26.45
73673;BMP280;61972;19.480;-99.240;2022-08-21T13:55:49;78076.38;;;26.42
73673;BMP280;61972;19.480;-99.240;2022-08-21T13:58:41;78079.94;;;26.40
73673;BMP280;61972;19.480;-99.240;2022-08-21T14:01:23;78074.53;;;26.38
73673;BMP280;61972;19.480;-99.240;2022-08-21T14:03:54;78074.91;;;26.36
73673;BMP280;61972;19.480;-99.240;2022-08-21T14:06:26;78064.78;;;26.34
73673;BMP280;61972;19.480;-99.240;2022-08-21T14:09:22;78065.22;;;26.32
73673;BMP280;61972;19.480;-99.240;2022-08-21T14:11:52;78071.94;;;26.31
73673;BMP280;61972;19.480;-99.240;2022-08-21T14:14:25;78068.19;;;26.30
73673;BMP280;61972;19.480;-99.240;2022-08-21T14:16:58;78065.97;;;26.28
73673;BMP280;61972;19.480;-99.240;2022-08-21T14:19:43;78066.91;;;26.26
73673;BMP280;61972;19.480;-99.240;2022-08-21T14:30:29;78076.47;;;26.20
73673;BMP280;61972;19.480;-99.240;2022-08-21T14:33:01;78070.50;;;26.17
73673;BMP280;61972;19.480;-99.240;2022-08-21T14:35:28;78077.25;;;26.16
73673;BMP280;61972;19.480;-99.240;2022-08-21T14:37:54;78084.00;;;26.15
73673;BMP280;61972;19.480;-99.240;2022-08-21T14:40:23;78084.00;;;26.15
73673;BMP280;61972;19.480;-99.240;2022-08-21T14:42:49;78084.00;;;26.15
73673;BMP280;61972;19.480;-99.240;2022-08-21T14:45:33;78086.97;;;26.13
73673;BMP280;61972;19.480;-99.240;2022-08-21T14:48:02;78093.34;;;26.14
73673;BMP280;61972;19.480;-99.240;2022-08-21T14:50:32;78090.56;;;26.12
73673;BMP280;61972;19.480;-99.240;2022-08-21T14:52:58;78104.19;;;26.12
73673;BMP280;61972;19.480;-99.240;2022-08-21T14:55:24;78106.81;;;26.12
73673;BMP280;61972;19.480;-99.240;2022-08-21T14:57:52;78102.13;;;26.13
73673;BMP280;61972;19.480;-99.240;2022-08-21T15:00:23;78106.81;;;26.12
73673;BMP280;61972;19.480;-99.240;2022-08-21T15:02:51;78109.81;;;26.10
73673;BMP280;61972;19.480;-99.240;2022-08-21T15:05:17;78120.28;;;26.10
73673;BMP280;61972;19.480;-99.240;2022-08-21T15:07:44;78119.19;;;26.09
73673;BMP280;61972;19.480;-99.240;2022-08-21T15:10:11;78118.03;;;26.08
73673;BMP280;61972;19.480;-99.240;2022-08-21T15:12:38;78120.09;;;26.08
73673;BMP280;61972;19.480;-99.240;2022-08-21T15:15:06;78120.28;;;26.10
73673;BMP280;61972;19.480;-99.240;2022-08-21T15:17:32;78122.53;;;26.12
73673;BMP280;61972;19.480;-99.240;2022-08-21T15:19:59;78121.97;;;26.12
73673;BMP280;61972;19.480;-99.240;2022-08-21T15:22:25;78108.31;;;26.11
73673;BMP280;61972;19.480;-99.240;2022-08-21T15:24:51;78120.28;;;26.10
73673;BMP280;61972;19.480;-99.240;2022-08-21T15:27:18;78108.69;;;26.09
73673;BMP280;61972;19.480;-99.240;2022-08-21T15:29:44;78119.19;;;26.09
73673;BMP280;61972;19.480;-99.240;2022-08-21T15:32:25;78117.09;;;26.10